sensor_id;sensor_type;location;lat;lon;timestamp;pressure;altitude;pressure_sealevel;temperature;humidity
59939;BME280;45801;51.810;19.444;2023-03-01T00:00:49;100457.81;;;-0.51;57.41
59939;BME280;45801;51.810;19.444;2023-03-01T00:03:22;100457.20;;;-0.52;57.61
59939;BME280;45801;51.810;19.444;2023-03-01T00:05:49;100455.18;;;-0.53;57.39
59939;BME280;45801;51.810;19.444;2023-03-01T00:08:15;100453.10;;;-0.55;57.38
59939;BME280;45801;51.810;19.444;2023-03-01T00:10:42;100451.93;;;-0.56;57.51
59939;BME280;45801;51.810;19.444;2023-03-01T00:13:08;100459.35;;;-0.56;57.87
59939;BME280;45801;51.810;19.444;2023-03-01T00:15:38;100466.55;;;-0.60;58.77
59939;BME280;45801;51.810;19.444;2023-03-01T00:18:05;100468.75;;;-0.61;58.32
59939;BME280;45801;51.810;19.444;2023-03-01T00:20:31;100468.48;;;-0.61;57.70
59939;BME280;45801;51.810;19.444;2023-03-01T00:22:57;100468.30;;;-0.61;57.77
59939;BME280;45801;51.810;19.444;2023-03-01T00:25:24;100470.92;;;-0.61;57.91
59939;BME280;45801;51.810;19.444;2023-03-01T00:27:50;100464.67;;;-0.60;57.58
59939;BME280;45801;51.810;19.444;2023-03-01T00:30:17;100464.44;;;-0.58;57.49
59939;BME280;45801;51.810;19.444;2023-03-01T00:32:43;100459.16;;;-0.61;57.85
59939;BME280;45801;51.810;19.444;2023-03-01T00:35:10;100452.18;;;-0.62;57.83
59939;BME280;45801;51.810;19.444;2023-03-01T00:37:36;100447.52;;;-0.64;57.41
59939;BME280;45801;51.810;19.444;2023-03-01T00:40:03;100448.92;;;-0.65;57.43
59939;BME280;45801;51.810;19.444;2023-03-01T00:42:32;100445.83;;;-0.65;57.35
59939;BME280;45801;51.810;19.444;2023-03-01T00:44:59;100440.27;;;-0.66;57.21
59939;BME280;45801;51.810;19.444;2023-03-01T00:47:25;100433.68;;;-0.66;57.33
59939;BME280;45801;51.810;19.444;2023-03-01T00:49:51;100432.38;;;-0.65;57.24
59939;BME280;45801;51.810;19.444;2023-03-01T00:52:18;100437.21;;;-0.67;57.39
59939;BME280;45801;51.810;19.444;2023-03-01T00:54:44;100440.14;;;-0.67;57.35
59939;BME280;45801;51.810;19.444;2023-03-01T00:57:11;100438.83;;;-0.68;57.27
59939;BME280;45801;51.810;19.444;2023-03-01T00:59:37;100443.31;;;-0.69;57.28
59939;BME280;45801;51.810;19.444;2023-03-01T01:02:04;100441.93;;;-0.71;57.17
59939;BME280;45801;51.810;19.444;2023-03-01T01:04:30;100445.11;;;-0.72;57.55
59939;BME280;45801;51.810;19.444;2023-03-01T01:06:56;100446.90;;;-0.71;57.54
59939;BME280;45801;51.810;19.444;2023-03-01T01:09:23;100447.84;;;-0.72;57.35
59939;BME280;45801;51.810;19.444;2023-03-01T01:11:50;100452.83;;;-0.74;57.66
59939;BME280;45801;51.810;19.444;2023-03-01T01:14:18;100455.71;;;-0.76;57.78
59939;BME280;45801;51.810;19.444;2023-03-01T01:16:46;100453.27;;;-0.78;57.66
59939;BME280;45801;51.810;19.444;2023-03-01T01:19:13;100447.30;;;-0.79;57.80
59939;BME280;45801;51.810;19.444;2023-03-01T01:21:40;100443.29;;;-0.79;57.50
59939;BME280;45801;51.810;19.444;2023-03-01T01:24:10;100447.25;;;-0.81;57.49
59939;BME280;45801;51.810;19.444;2023-03-01T01:26:37;100449.77;;;-0.82;57.52
59939;BME280;45801;51.810;19.444;2023-03-01T01:29:04;100446.77;;;-0.82;57.61
59939;BME280;45801;51.810;19.444;2023-03-01T01:31:32;100448.22;;;-0.81;57.69
59939;BME280;45801;51.810;19.444;2023-03-01T01:34:01;100438.11;;;-0.81;57.66
59939;BME280;45801;51.810;19.444;2023-03-01T01:36:29;100432.91;;;-0.83;57.54
59939;BME280;45801;51.810;19.444;2023-03-01T01:38:56;100429.15;;;-0.86;57.77
59939;BME280;45801;51.810;19.444;2023-03-01T01:41:25;100425.16;;;-0.88;57.94
59939;BME280;45801;51.810;19.444;2023-03-01T01:47:07;100412.63;;;-0.94;57.87
59939;BME280;45801;51.810;19.444;2023-03-01T01:49:50;100408.44;;;-0.98;57.86
59939;BME280;45801;51.810;19.444;2023-03-01T01:52:31;100405.54;;;-1.02;58.19
59939;BME280;45801;51.810;19.444;2023-03-01T01:55:10;100406.29;;;-1.05;57.91
59939;BME280;45801;51.810;19.444;2023-03-01T01:57:41;100412.02;;;-1.07;57.88
59939;BME280;45801;51.810;19.444;2023-03-01T02:00:13;100408.71;;;-1.05;57.92
59939;BME280;45801;51.810;19.444;2023-03-01T02:02:41;100405.80;;;-1.07;57.85
59939;BME280;45801;51.810;19.444;2023-03-01T02:07:59;100401.98;;;-1.12;57.63
59939;BME280;45801;51.810;19.444;2023-03-01T02:10:27;100396.98;;;-1.14;57.95
59939;BME280;45801;51.810;19.444;2023-03-01T02:12:55;100391.67;;;-1.16;58.37
59939;BME280;45801;51.810;19.444;2023-03-01T02:15:23;100381.05;;;-1.18;58.13
59939;BME280;45801;51.810;19.444;2023-03-01T02:17:50;100375.11;;;-1.20;58.26
59939;BME280;45801;51.810;19.444;2023-03-01T02:20:26;100371.33;;;-1.24;58.53
59939;BME280;45801;51.810;19.444;2023-03-01T02:22:56;100372.46;;;-1.26;58.48
59939;BME280;45801;51.810;19.444;2023-03-01T02:25:38;100368.64;;;-1.30;58.75
59939;BME280;45801;51.810;19.444;2023-03-01T02:30:40;100363.12;;;-1.33;58.79
59939;BME280;45801;51.810;19.444;2023-03-01T02:33:28;100359.27;;;-1.35;58.69
59939;BME280;45801;51.810;19.444;2023-03-01T02:36:03;100359.41;;;-1.37;58.39
59939;BME280;45801;51.810;19.444;2023-03-01T02:38:31;100358.81;;;-1.36;58.46
59939;BME280;45801;51.810;19.444;2023-03-01T02:40:59;100357.96;;;-1.36;58.36
59939;BME280;45801;51.810;19.444;2023-03-01T02:43:29;100366.35;;;-1.36;58.47
59939;BME280;45801;51.810;19.444;2023-03-01T02:46:01;100369.84;;;-1.37;59.15
59939;BME280;45801;51.810;19.444;2023-03-01T02:48:40;100375.23;;;-1.38;59.10
59939;BME280;45801;51.810;19.444;2023-03-01T02:56:26;100365.48;;;-1.43;58.23
59939;BME280;45801;51.810;19.444;2023-03-01T02:58:52;100364.63;;;-1.43;58.35
59939;BME280;45801;51.810;19.444;2023-03-01T03:01:19;100364.70;;;-1.42;58.52
59939;BME280;45801;51.810;19.444;2023-03-01T03:03:46;100360.27;;;-1.42;58.36
59939;BME280;45801;51.810;19.444;2023-03-01T03:06:13;100359.27;;;-1.40;58.43
59939;BME280;45801;51.810;19.444;2023-03-01T03:08:39;100357.77;;;-1.39;58.26
59939;BME280;45801;51.810;19.444;2023-03-01T03:11:06;100355.60;;;-1.39;58.02
59939;BME280;45801;51.810;19.444;2023-03-01T03:13:32;100354.89;;;-1.36;57.83
59939;BME280;45801;51.810;19.444;2023-03-01T03:15:59;100354.03;;;-1.34;57.80
59939;BME280;45801;51.810;19.444;2023-03-01T03:18:25;100354.19;;;-1.34;58.11
59939;BME280;45801;51.810;19.444;2023-03-01T03:20:53;100356.86;;;-1.33;58.20
59939;BME280;45801;51.810;19.444;2023-03-01T03:23:21;100353.20;;;-1.32;58.21
59939;BME280;45801;51.810;19.444;2023-03-01T03:25:49;100357.36;;;-1.32;58.04
59939;BME280;45801;51.810;19.444;2023-03-01T03:28:16;100362.08;;;-1.33;58.01
59939;BME280;45801;51.810;19.444;2023-03-01T03:30:43;100362.63;;;-1.34;57.92
59939;BME280;45801;51.810;19.444;2023-03-01T03:33:11;100359.70;;;-1.34;57.85
59939;BME280;45801;51.810;19.444;2023-03-01T03:35:43;100357.98;;;-1.34;58.06
59939;BME280;45801;51.810;19.444;2023-03-01T03:38:12;100363.56;;;-1.33;57.99
59939;BME280;45801;51.810;19.444;2023-03-01T03:40:44;100368.11;;;-1.33;57.91
59939;BME280;45801;51.810;19.444;2023-03-01T03:43:19;100366.76;;;-1.33;57.98
59939;BME280;45801;51.810;19.444;2023-03-01T03:45:47;100358.96;;;-1.34;58.01
59939;BME280;45801;51.810;19.444;2023-03-01T03:48:14;100358.34;;;-1.37;58.01
59939;BME280;45801;51.810;19.444;2023-03-01T03:50:48;100354.36;;;-1.41;58.16
59939;BME280;45801;51.810;19.444;2023-03-01T03:53:16;100351.36;;;-1.41;58.23
59939;BME280;45801;51.810;19.444;2023-03-01T03:55:42;100351.33;;;-1.42;58.35
59939;BME280;45801;51.810;19.444;2023-03-01T03:58:11;100351.21;;;-1.43;58.22
59939;BME280;45801;51.810;19.444;2023-03-01T04:00:43;100354.78;;;-1.42;57.98
59939;BME280;45801;51.810;19.444;2023-03-01T04:03:12;100355.39;;;-1.41;57.97
59939;BME280;45801;51.810;19.444;2023-03-01T04:05:41;100350.66;;;-1.42;58.05
59939;BME280;45801;51.810;19.444;2023-03-01T04:08:08;100349.79;;;-1.42;57.96
59939;BME280;45801;51.810;19.444;2023-03-01T04:10:46;100350.30;;;-1.42;58.16
59939;BME280;45801;51.810;19.444;2023-03-01T04:13:16;100351.39;;;-1.41;58.18
59939;BME280;45801;51.810;19.444;2023-03-01T04:15:43;100350.14;;;-1.42;58.04
59939;BME280;45801;51.810;19.444;2023-03-01T04:18:14;100351.98;;;-1.42;57.99
59939;BME280;45801;51.810;19.444;2023-03-01T04:20:42;100356.57;;;-1.43;57.81
59939;BME280;45801;51.810;19.444;2023-03-01T04:23:13;100357.64;;;-1.44;57.92
59939;BME280;45801;51.810;19.444;2023-03-01T04:28:12;100356.82;;;-1.47;58.23
59939;BME280;45801;51.810;19.444;2023-03-01T04:30:38;100356.49;;;-1.47;58.27
59939;BME280;45801;51.810;19.444;2023-03-01T04:33:07;100356.46;;;-1.47;58.12
59939;BME280;45801;51.810;19.444;2023-03-01T04:35:35;100355.92;;;-1.48;58.23
59939;BME280;45801;51.810;19.444;2023-03-01T04:38:03;100352.79;;;-1.51;58.13
59939;BME280;45801;51.810;19.444;2023-03-01T04:40:30;100345.15;;;-1.53;58.21
59939;BME280;45801;51.810;19.444;2023-03-01T04:42:57;100342.45;;;-1.54;58.30
59939;BME280;45801;51.810;19.444;2023-03-01T04:45:24;100339.22;;;-1.55;58.34
59939;BME280;45801;51.810;19.444;2023-03-01T04:47:50;100338.23;;;-1.56;58.23
59939;BME280;45801;51.810;19.444;2023-03-01T04:50:18;100337.32;;;-1.57;58.56
59939;BME280;45801;51.810;19.444;2023-03-01T04:52:49;100336.48;;;-1.57;58.11
59939;BME280;45801;51.810;19.444;2023-03-01T04:55:16;100332.69;;;-1.57;58.00
59939;BME280;45801;51.810;19.444;2023-03-01T04:57:42;100334.48;;;-1.60;57.94
59939;BME280;45801;51.810;19.444;2023-03-01T05:00:13;100334.52;;;-1.61;57.82
59939;BME280;45801;51.810;19.444;2023-03-01T05:02:50;100335.20;;;-1.61;58.06
59939;BME280;45801;51.810;19.444;2023-03-01T05:07:53;100342.55;;;-1.59;58.55
59939;BME280;45801;51.810;19.444;2023-03-01T05:10:20;100338.34;;;-1.62;58.31
59939;BME280;45801;51.810;19.444;2023-03-01T05:12:47;100335.81;;;-1.65;58.43
59939;BME280;45801;51.810;19.444;2023-03-01T05:15:14;100332.89;;;-1.66;58.32
59939;BME280;45801;51.810;19.444;2023-03-01T05:17:41;100328.13;;;-1.67;58.69
59939;BME280;45801;51.810;19.444;2023-03-01T05:20:09;100321.42;;;-1.67;58.76
59939;BME280;45801;51.810;19.444;2023-03-01T05:22:36;100324.98;;;-1.66;58.68
59939;BME280;45801;51.810;19.444;2023-03-01T05:25:03;100333.67;;;-1.67;58.92
59939;BME280;45801;51.810;19.444;2023-03-01T05:27:30;100333.44;;;-1.71;58.87
59939;BME280;45801;51.810;19.444;2023-03-01T05:29:57;100333.48;;;-1.72;58.60
59939;BME280;45801;51.810;19.444;2023-03-01T05:32:23;100331.85;;;-1.74;58.19
59939;BME280;45801;51.810;19.444;2023-03-01T05:34:50;100326.79;;;-1.75;58.68
59939;BME280;45801;51.810;19.444;2023-03-01T05:37:18;100324.66;;;-1.74;58.83
59939;BME280;45801;51.810;19.444;2023-03-01T05:39:46;100321.50;;;-1.71;59.05
59939;BME280;45801;51.810;19.444;2023-03-01T05:42:12;100323.02;;;-1.70;58.89
59939;BME280;45801;51.810;19.444;2023-03-01T05:44:39;100325.77;;;-1.70;59.21
59939;BME280;45801;51.810;19.444;2023-03-01T05:47:05;100328.11;;;-1.69;59.70
59939;BME280;45801;51.810;19.444;2023-03-01T05:49:32;100323.69;;;-1.69;59.40
59939;BME280;45801;51.810;19.444;2023-03-01T05:51:58;100318.57;;;-1.65;58.97
59939;BME280;45801;51.810;19.444;2023-03-01T05:54:25;100310.49;;;-1.64;59.23
59939;BME280;45801;51.810;19.444;2023-03-01T05:56:51;100304.60;;;-1.61;59.39
59939;BME280;45801;51.810;19.444;2023-03-01T05:59:19;100296.76;;;-1.57;59.46
59939;BME280;45801;51.810;19.444;2023-03-01T06:01:45;100290.27;;;-1.53;59.18
59939;BME280;45801;51.810;19.444;2023-03-01T06:04:12;100289.13;;;-1.48;59.25
59939;BME280;45801;51.810;19.444;2023-03-01T06:06:38;100289.41;;;-1.44;59.71
59939;BME280;45801;51.810;19.444;2023-03-01T06:09:06;100290.75;;;-1.41;59.88
59939;BME280;45801;51.810;19.444;2023-03-01T06:11:36;100294.01;;;-1.41;59.92
59939;BME280;45801;51.810;19.444;2023-03-01T06:14:03;100292.13;;;-1.38;59.91
59939;BME280;45801;51.810;19.444;2023-03-01T06:16:31;100293.70;;;-1.34;59.75
59939;BME280;45801;51.810;19.444;2023-03-01T06:18:58;100296.35;;;-1.29;59.69
59939;BME280;45801;51.810;19.444;2023-03-01T06:21:24;100295.91;;;-1.23;60.03
59939;BME280;45801;51.810;19.444;2023-03-01T06:23:51;100293.44;;;-1.17;59.78
59939;BME280;45801;51.810;19.444;2023-03-01T06:26:18;100300.48;;;-1.12;59.86
59939;BME280;45801;51.810;19.444;2023-03-01T06:28:45;100300.89;;;-1.07;59.94
59939;BME280;45801;51.810;19.444;2023-03-01T06:31:12;100305.28;;;-0.99;59.92
59939;BME280;45801;51.810;19.444;2023-03-01T06:33:39;100308.63;;;-0.94;60.25
59939;BME280;45801;51.810;19.444;2023-03-01T06:36:06;100322.55;;;-0.91;60.40
59939;BME280;45801;51.810;19.444;2023-03-01T06:38:33;100329.39;;;-0.88;60.46
59939;BME280;45801;51.810;19.444;2023-03-01T06:41:00;100339.53;;;-0.83;60.23
59939;BME280;45801;51.810;19.444;2023-03-01T06:43:27;100348.55;;;-0.79;60.13
59939;BME280;45801;51.810;19.444;2023-03-01T06:45:54;100343.60;;;-0.75;60.54
59939;BME280;45801;51.810;19.444;2023-03-01T06:48:20;100334.04;;;-0.70;60.26
59939;BME280;45801;51.810;19.444;2023-03-01T06:50:47;100330.43;;;-0.63;60.06
59939;BME280;45801;51.810;19.444;2023-03-01T06:53:13;100331.13;;;-0.55;60.19
59939;BME280;45801;51.810;19.444;2023-03-01T06:55:39;100330.77;;;-0.45;60.28
59939;BME280;45801;51.810;19.444;2023-03-01T06:58:06;100330.33;;;-0.36;60.07
59939;BME280;45801;51.810;19.444;2023-03-01T07:00:32;100331.55;;;-0.27;60.66
59939;BME280;45801;51.810;19.444;2023-03-01T07:03:01;100331.72;;;-0.19;60.56
59939;BME280;45801;51.810;19.444;2023-03-01T07:05:29;100327.83;;;-0.10;60.44
59939;BME280;45801;51.810;19.444;2023-03-01T07:07:56;100325.59;;;0.01;60.42
59939;BME280;45801;51.810;19.444;2023-03-01T07:10:23;100321.71;;;0.06;60.25
59939;BME280;45801;51.810;19.444;2023-03-01T07:12:50;100322.73;;;0.10;60.13
59939;BME280;45801;51.810;19.444;2023-03-01T07:15:16;100325.23;;;0.17;59.61
59939;BME280;45801;51.810;19.444;2023-03-01T07:17:43;100327.38;;;0.23;60.57
59939;BME280;45801;51.810;19.444;2023-03-01T07:20:11;100321.95;;;0.29;60.08
59939;BME280;45801;51.810;19.444;2023-03-01T07:22:39;100314.39;;;0.36;60.29
59939;BME280;45801;51.810;19.444;2023-03-01T07:25:07;100309.90;;;0.43;60.25
59939;BME280;45801;51.810;19.444;2023-03-01T07:27:35;100308.35;;;0.46;61.11
59939;BME280;45801;51.810;19.444;2023-03-01T07:30:02;100306.67;;;0.49;61.17
59939;BME280;45801;51.810;19.444;2023-03-01T07:32:29;100314.67;;;0.53;60.56
59939;BME280;45801;51.810;19.444;2023-03-01T07:34:55;100317.80;;;0.58;60.65
59939;BME280;45801;51.810;19.444;2023-03-01T07:37:22;100316.03;;;0.58;60.92
59939;BME280;45801;51.810;19.444;2023-03-01T07:39:48;100314.55;;;0.67;60.21
59939;BME280;45801;51.810;19.444;2023-03-01T07:42:15;100315.84;;;0.56;60.47
59939;BME280;45801;51.810;19.444;2023-03-01T07:44:42;100315.20;;;0.51;60.91
59939;BME280;45801;51.810;19.444;2023-03-01T07:47:09;100313.73;;;0.54;61.04
59939;BME280;45801;51.810;19.444;2023-03-01T07:49:35;100314.35;;;0.60;61.11
59939;BME280;45801;51.810;19.444;2023-03-01T07:52:03;100311.73;;;0.62;60.81
59939;BME280;45801;51.810;19.444;2023-03-01T07:54:29;100309.86;;;0.72;60.56
59939;BME280;45801;51.810;19.444;2023-03-01T07:56:56;100303.77;;;0.73;61.19
59939;BME280;45801;51.810;19.444;2023-03-01T07:59:23;100305.62;;;0.85;61.09
59939;BME280;45801;51.810;19.444;2023-03-01T08:01:56;100308.41;;;0.91;61.45
59939;BME280;45801;51.810;19.444;2023-03-01T08:04:23;100310.34;;;0.89;61.56
59939;BME280;45801;51.810;19.444;2023-03-01T08:06:51;100308.29;;;0.95;61.03
59939;BME280;45801;51.810;19.444;2023-03-01T08:09:18;100308.80;;;1.03;60.71
59939;BME280;45801;51.810;19.444;2023-03-01T08:11:44;100311.11;;;1.11;60.09
59939;BME280;45801;51.810;19.444;2023-03-01T08:14:11;100310.14;;;1.21;60.83
59939;BME280;45801;51.810;19.444;2023-03-01T08:16:38;100310.60;;;1.24;60.41
59939;BME280;45801;51.810;19.444;2023-03-01T08:19:09;100313.96;;;1.27;60.14
59939;BME280;45801;51.810;19.444;2023-03-01T08:21:37;100314.64;;;1.32;60.20
59939;BME280;45801;51.810;19.444;2023-03-01T08:24:05;100310.81;;;1.37;60.19
59939;BME280;45801;51.810;19.444;2023-03-01T08:26:32;100308.36;;;1.46;59.77
59939;BME280;45801;51.810;19.444;2023-03-01T08:29:00;100310.02;;;1.54;59.47
59939;BME280;45801;51.810;19.444;2023-03-01T08:31:31;100308.56;;;1.57;59.14
59939;BME280;45801;51.810;19.444;2023-03-01T08:34:00;100303.67;;;1.67;59.01
59939;BME280;45801;51.810;19.444;2023-03-01T08:36:29;100305.15;;;1.75;58.78
59939;BME280;45801;51.810;19.444;2023-03-01T08:38:56;100309.30;;;1.75;58.48
59939;BME280;45801;51.810;19.444;2023-03-01T08:41:23;100308.27;;;1.77;58.38
59939;BME280;45801;51.810;19.444;2023-03-01T08:43:50;100303.31;;;1.83;58.81
59939;BME280;45801;51.810;19.444;2023-03-01T08:46:17;100299.55;;;1.87;58.15
59939;BME280;45801;51.810;19.444;2023-03-01T08:48:43;100294.86;;;1.98;58.04
59939;BME280;45801;51.810;19.444;2023-03-01T08:51:14;100286.30;;;2.12;58.22
59939;BME280;45801;51.810;19.444;2023-03-01T08:53:41;100284.64;;;2.28;57.71
59939;BME280;45801;51.810;19.444;2023-03-01T08:56:08;100281.77;;;2.40;56.99
59939;BME280;45801;51.810;19.444;2023-03-01T08:58:35;100278.24;;;2.44;57.00
59939;BME280;45801;51.810;19.444;2023-03-01T09:01:07;100270.38;;;2.59;57.17
59939;BME280;45801;51.810;19.444;2023-03-01T09:03:33;100267.96;;;2.69;55.98
59939;BME280;45801;51.810;19.444;2023-03-01T09:06:01;100260.45;;;2.66;55.82
59939;BME280;45801;51.810;19.444;2023-03-01T09:08:29;100254.08;;;2.77;55.47
59939;BME280;45801;51.810;19.444;2023-03-01T09:10:55;100255.91;;;2.86;54.96
59939;BME280;45801;51.810;19.444;2023-03-01T09:13:22;100258.27;;;2.93;54.55
59939;BME280;45801;51.810;19.444;2023-03-01T09:15:53;100260.79;;;3.00;54.98
59939;BME280;45801;51.810;19.444;2023-03-01T09:18:20;100263.42;;;3.14;54.70
59939;BME280;45801;51.810;19.444;2023-03-01T09:20:48;100262.82;;;3.21;54.43
59939;BME280;45801;51.810;19.444;2023-03-01T09:23:14;100258.93;;;3.20;53.32
59939;BME280;45801;51.810;19.444;2023-03-01T09:25:41;100262.12;;;3.33;53.27
59939;BME280;45801;51.810;19.444;2023-03-01T09:28:07;100269.75;;;3.47;53.58
59939;BME280;45801;51.810;19.444;2023-03-01T09:30:35;100268.95;;;3.58;52.82
59939;BME280;45801;51.810;19.444;2023-03-01T09:33:01;100268.61;;;3.68;52.68
59939;BME280;45801;51.810;19.444;2023-03-01T09:35:28;100269.52;;;3.76;52.51
59939;BME280;45801;51.810;19.444;2023-03-01T09:37:55;100272.89;;;3.85;52.32
59939;BME280;45801;51.810;19.444;2023-03-01T09:40:23;100275.98;;;3.89;51.93
59939;BME280;45801;51.810;19.444;2023-03-01T09:42:56;100279.19;;;3.86;51.37
59939;BME280;45801;51.810;19.444;2023-03-01T09:45:34;100273.84;;;3.78;50.82
59939;BME280;45801;51.810;19.444;2023-03-01T09:48:02;100271.10;;;3.84;50.89
59939;BME280;45801;51.810;19.444;2023-03-01T09:50:39;100266.42;;;3.88;50.77
59939;BME280;45801;51.810;19.444;2023-03-01T09:53:17;100265.92;;;3.99;50.96
59939;BME280;45801;51.810;19.444;2023-03-01T10:01:38;100254.70;;;4.51;51.98
59939;BME280;45801;51.810;19.444;2023-03-01T10:09:48;100253.63;;;4.80;49.69
59939;BME280;45801;51.810;19.444;2023-03-01T10:12:19;100252.42;;;4.80;48.97
59939;BME280;45801;51.810;19.444;2023-03-01T10:14:55;100254.77;;;4.94;49.33
59939;BME280;45801;51.810;19.444;2023-03-01T10:17:46;100254.48;;;4.95;48.13
59939;BME280;45801;51.810;19.444;2023-03-01T10:20:26;100250.20;;;5.10;48.95
59939;BME280;45801;51.810;19.444;2023-03-01T10:22:53;100242.52;;;5.25;48.30
59939;BME280;45801;51.810;19.444;2023-03-01T10:28:25;100236.06;;;5.40;46.64
59939;BME280;45801;51.810;19.444;2023-03-01T10:30:53;100237.04;;;5.52;46.22
59939;BME280;45801;51.810;19.444;2023-03-01T10:33:23;100231.63;;;5.67;46.30
59939;BME280;45801;51.810;19.444;2023-03-01T10:35:50;100226.70;;;5.85;46.02
59939;BME280;45801;51.810;19.444;2023-03-01T10:38:19;100224.20;;;5.91;43.78
59939;BME280;45801;51.810;19.444;2023-03-01T10:41:04;100225.08;;;5.99;43.05
59939;BME280;45801;51.810;19.444;2023-03-01T10:43:48;100226.86;;;6.13;42.86
59939;BME280;45801;51.810;19.444;2023-03-01T10:46:41;100220.66;;;6.25;42.13
59939;BME280;45801;51.810;19.444;2023-03-01T10:49:24;100220.13;;;6.23;41.61
59939;BME280;45801;51.810;19.444;2023-03-01T10:51:53;100223.50;;;6.28;42.55
59939;BME280;45801;51.810;19.444;2023-03-01T10:54:28;100219.23;;;6.50;45.15
59939;BME280;45801;51.810;19.444;2023-03-01T10:56:57;100213.27;;;6.71;42.79
59939;BME280;45801;51.810;19.444;2023-03-01T10:59:31;100208.33;;;6.85;42.12
59939;BME280;45801;51.810;19.444;2023-03-01T11:02:23;100199.31;;;6.92;41.20
59939;BME280;45801;51.810;19.444;2023-03-01T11:05:00;100192.25;;;7.05;42.13
59939;BME280;45801;51.810;19.444;2023-03-01T11:07:27;100187.53;;;7.17;40.95
59939;BME280;45801;51.810;19.444;2023-03-01T11:09:54;100185.05;;;7.36;42.29
59939;BME280;45801;51.810;19.444;2023-03-01T11:12:21;100182.88;;;7.52;41.32
59939;BME280;45801;51.810;19.444;2023-03-01T11:14:50;100182.94;;;7.63;40.41
59939;BME280;45801;51.810;19.444;2023-03-01T11:17:35;100182.20;;;7.72;39.57
59939;BME280;45801;51.810;19.444;2023-03-01T11:22:47;100167.92;;;7.90;40.74
59939;BME280;45801;51.810;19.444;2023-03-01T11:25:15;100168.20;;;7.97;39.64
59939;BME280;45801;51.810;19.444;2023-03-01T11:27:45;100172.21;;;8.02;39.54
59939;BME280;45801;51.810;19.444;2023-03-01T11:30:24;100168.79;;;8.01;38.49
59939;BME280;45801;51.810;19.444;2023-03-01T11:32:59;100167.04;;;7.93;38.88
59939;BME280;45801;51.810;19.444;2023-03-01T11:35:30;100169.34;;;7.93;39.39
59939;BME280;45801;51.810;19.444;2023-03-01T11:38:25;100166.51;;;7.90;38.61
59939;BME280;45801;51.810;19.444;2023-03-01T11:41:15;100165.48;;;7.93;39.01
59939;BME280;45801;51.810;19.444;2023-03-01T11:44:07;100164.47;;;8.02;37.96
59939;BME280;45801;51.810;19.444;2023-03-01T11:50:11;100153.30;;;8.22;37.88
59939;BME280;45801;51.810;19.444;2023-03-01T12:04:29;100143.95;;;8.71;35.14
59939;BME280;45801;51.810;19.444;2023-03-01T12:21:20;100122.02;;;8.77;32.43
59939;BME280;45801;51.810;19.444;2023-03-01T12:23:57;100123.09;;;8.82;33.24
59939;BME280;45801;51.810;19.444;2023-03-01T12:26:38;100119.01;;;8.76;31.83
59939;BME280;45801;51.810;19.444;2023-03-01T12:29:26;100115.91;;;8.77;32.99
59939;BME280;45801;51.810;19.444;2023-03-01T12:40:42;100103.77;;;8.95;32.76
59939;BME280;45801;51.810;19.444;2023-03-01T12:46:10;100096.55;;;8.99;31.30
59939;BME280;45801;51.810;19.444;2023-03-01T12:51:30;100082.52;;;9.10;30.18
59939;BME280;45801;51.810;19.444;2023-03-01T12:53:59;100076.33;;;9.12;30.25
59939;BME280;45801;51.810;19.444;2023-03-01T12:56:32;100077.11;;;9.02;30.36
59939;BME280;45801;51.810;19.444;2023-03-01T13:05:00;100072.66;;;8.98;31.50
59939;BME280;45801;51.810;19.444;2023-03-01T13:07:38;100079.86;;;8.95;31.75
59939;BME280;45801;51.810;19.444;2023-03-01T13:10:29;100079.73;;;8.93;31.92
59939;BME280;45801;51.810;19.444;2023-03-01T13:13:13;100078.35;;;8.99;32.97
59939;BME280;45801;51.810;19.444;2023-03-01T13:15:40;100079.64;;;9.00;32.42
59939;BME280;45801;51.810;19.444;2023-03-01T13:31:08;100089.92;;;8.37;33.38
59939;BME280;45801;51.810;19.444;2023-03-01T13:33:52;100093.03;;;8.29;33.81
59939;BME280;45801;51.810;19.444;2023-03-01T13:38:57;100083.00;;;8.28;35.20
59939;BME280;45801;51.810;19.444;2023-03-01T13:44:34;100078.20;;;8.24;35.50
59939;BME280;45801;51.810;19.444;2023-03-01T13:49:42;100076.56;;;8.31;35.03
59939;BME280;45801;51.810;19.444;2023-03-01T13:52:58;100074.10;;;8.43;35.18
59939;BME280;45801;51.810;19.444;2023-03-01T13:55:36;100080.73;;;8.49;34.74
59939;BME280;45801;51.810;19.444;2023-03-01T13:58:33;100081.38;;;8.48;33.93
59939;BME280;45801;51.810;19.444;2023-03-01T14:01:32;100086.16;;;8.39;33.93
59939;BME280;45801;51.810;19.444;2023-03-01T14:04:00;100086.10;;;8.35;33.86
59939;BME280;45801;51.810;19.444;2023-03-01T14:06:32;100082.86;;;8.34;34.28
59939;BME280;45801;51.810;19.444;2023-03-01T14:09:15;100079.70;;;8.46;34.73
59939;BME280;45801;51.810;19.444;2023-03-01T14:12:13;100071.69;;;8.60;35.06
59939;BME280;45801;51.810;19.444;2023-03-01T14:17:40;100060.17;;;8.79;35.15
59939;BME280;45801;51.810;19.444;2023-03-01T14:20:20;100053.95;;;8.75;35.94
59939;BME280;45801;51.810;19.444;2023-03-01T14:22:49;100046.80;;;8.70;36.54
59939;BME280;45801;51.810;19.444;2023-03-01T14:25:29;100046.55;;;8.65;37.68
59939;BME280;45801;51.810;19.444;2023-03-01T14:28:19;100040.80;;;8.69;39.50
59939;BME280;45801;51.810;19.444;2023-03-01T14:30:52;100035.84;;;8.79;39.40
59939;BME280;45801;51.810;19.444;2023-03-01T14:38:22;100025.98;;;8.86;39.08
59939;BME280;45801;51.810;19.444;2023-03-01T14:40:51;100027.80;;;9.04;40.31
59939;BME280;45801;51.810;19.444;2023-03-01T14:43:22;100026.48;;;9.28;39.71
59939;BME280;45801;51.810;19.444;2023-03-01T14:45:51;100024.06;;;9.49;39.49
59939;BME280;45801;51.810;19.444;2023-03-01T14:48:18;100024.27;;;9.55;39.41
59939;BME280;45801;51.810;19.444;2023-03-01T14:50:45;100025.25;;;9.63;37.95
59939;BME280;45801;51.810;19.444;2023-03-01T14:53:19;100025.46;;;9.60;37.77
59939;BME280;45801;51.810;19.444;2023-03-01T14:55:50;100029.84;;;9.64;39.63